Time;durP1;ratioP1;P1;durP2;ratioP2;P2;SDS_P1;SDS_P2;PMS_P1;PMS_P2;Temp;Humidity;BMP_temperature;BMP_pressure;BME280_temperature;BME280_humidity;BME280_pressure;Samples;Min_cycle;Max_cycle;Signal;HPM_P1;HPM_P2
2020/12/23 00:00:14;;;;;;;27.00;7.67;;;;;;;;;;5043570;28;20304;-67
2020/12/23 00:02:42;;;;;;;24.13;6.30;;;;;;;;;;5044941;28;20317;-67
2020/12/23 00:05:08;;;;;;;22.67;8.27;;;;;;;;;;5043379;28;21600;-68
2020/12/23 00:07:34;;;;;;;22.60;7.78;;;;;;;;;;5043856;28;20062;-68
2020/12/23 00:09:59;;;;;;;20.40;9.02;;;;;;;;;;5045606;28;20044;-68
2020/12/23 00:12:24;;;;;;;32.63;10.48;;;;;;;;;;5044139;28;20025;-67
2020/12/23 00:14:50;;;;;;;27.55;9.90;;;;;;;;;;5045584;28;20040;-67
2020/12/23 00:17:21;;;;;;;33.00;11.52;;;;;;;;;;5044777;28;20112;-67
2020/12/23 00:19:46;;;;;;;29.83;11.57;;;;;;;;;;5044504;28;20025;-67
2020/12/23 00:22:11;;;;;;;32.17;11.55;;;;;;;;;;5043469;28;20028;-68
2020/12/23 00:24:37;;;;;;;39.78;12.73;;;;;;;;;;5045598;28;20159;-67
2020/12/23 00:27:02;;;;;;;30.47;12.77;;;;;;;;;;5044633;28;20055;-68
2020/12/23 00:29:27;;;;;;;32.45;12.98;;;;;;;;;;5043673;28;20263;-68
2020/12/23 00:31:53;;;;;;;32.33;12.57;;;;;;;;;;5043891;28;20028;-68
2020/12/23 00:34:18;;;;;;;30.67;14.60;;;;;;;;;;5043896;28;20074;-68
2020/12/23 00:36:43;;;;;;;32.75;14.57;;;;;;;;;;5041483;28;20036;-69
2020/12/23 00:39:08;;;;;;;37.17;13.40;;;;;;;;;;5044806;28;20028;-67
2020/12/23 00:41:33;;;;;;;38.37;13.93;;;;;;;;;;5043906;28;20255;-68
2020/12/23 00:43:58;;;;;;;33.17;13.00;;;;;;;;;;5043877;28;20267;-70
2020/12/23 00:46:24;;;;;;;31.10;14.30;;;;;;;;;;5042690;28;20669;-67
2020/12/23 00:48:49;;;;;;;41.07;15.50;;;;;;;;;;5042310;28;20279;-67
2020/12/23 00:51:14;;;;;;;44.53;15.57;;;;;;;;;;5043708;28;20927;-67
2020/12/23 00:53:40;;;;;;;33.72;14.20;;;;;;;;;;5043385;28;20358;-68
2020/12/23 00:56:06;;;;;;;35.95;13.40;;;;;;;;;;5042829;28;20156;-67
2020/12/23 00:58:31;;;;;;;37.92;15.15;;;;;;;;;;5042210;28;20100;-67
2020/12/23 01:00:57;;;;;;;40.17;14.73;;;;;;;;;;5042376;28;20024;-68
2020/12/23 01:03:22;;;;;;;32.97;12.88;;;;;;;;;;5043513;28;20035;-67
2020/12/23 01:05:47;;;;;;;39.63;14.70;;;;;;;;;;5044181;28;20032;-68
2020/12/23 01:08:12;;;;;;;31.93;12.93;;;;;;;;;;5043661;28;20084;-68
2020/12/23 01:10:37;;;;;;;33.97;11.45;;;;;;;;;;5042847;28;20936;-69
2020/12/23 01:13:03;;;;;;;35.27;13.47;;;;;;;;;;5042929;28;20071;-68
2020/12/23 01:15:28;;;;;;;23.90;10.70;;;;;;;;;;5044353;28;20993;-67
2020/12/23 01:17:53;;;;;;;38.07;10.83;;;;;;;;;;5041113;28;20047;-66
2020/12/23 01:20:18;;;;;;;29.05;11.10;;;;;;;;;;5043230;28;20259;-67
2020/12/23 01:22:43;;;;;;;36.37;11.80;;;;;;;;;;5043134;28;20040;-67
2020/12/23 01:25:08;;;;;;;37.87;10.50;;;;;;;;;;5043388;28;20255;-67
2020/12/23 01:27:34;;;;;;;26.73;10.40;;;;;;;;;;5043317;28;20282;-67
2020/12/23 01:29:59;;;;;;;34.83;10.68;;;;;;;;;;5042963;28;20013;-67
2020/12/23 01:32:24;;;;;;;34.90;11.10;;;;;;;;;;5043076;28;20174;-67
2020/12/23 01:34:49;;;;;;;33.60;10.60;;;;;;;;;;5040537;28;20256;-68
2020/12/23 01:37:14;;;;;;;26.80;8.23;;;;;;;;;;5044006;28;20060;-68
2020/12/23 01:39:39;;;;;;;26.02;9.60;;;;;;;;;;5043789;28;20274;-68
2020/12/23 01:42:05;;;;;;;36.38;9.75;;;;;;;;;;5042985;28;20409;-68
2020/12/23 01:44:30;;;;;;;26.90;9.30;;;;;;;;;;5040787;28;20021;-68
2020/12/23 01:46:55;;;;;;;26.97;7.53;;;;;;;;;;5042686;28;20291;-68
2020/12/23 01:49:20;;;;;;;30.58;11.07;;;;;;;;;;5042652;28;20272;-68
2020/12/23 01:51:46;;;;;;;27.00;9.10;;;;;;;;;;5043105;28;20029;-68
2020/12/23 01:54:14;;;;;;;34.13;10.25;;;;;;;;;;5042995;28;20481;-68
2020/12/23 01:56:45;;;;;;;31.00;9.90;;;;;;;;;;5042200;28;20052;-68
2020/12/23 01:59:11;;;;;;;39.08;10.88;;;;;;;;;;5043037;28;20049;-68
2020/12/23 02:01:40;;;;;;;31.07;9.47;;;;;;;;;;5042588;28;20755;-68
2020/12/23 02:04:05;;;;;;;27.83;11.07;;;;;;;;;;5041584;28;20279;-68
2020/12/23 02:06:32;;;;;;;41.25;12.18;;;;;;;;;;5039542;28;20021;-68
2020/12/23 02:08:58;;;;;;;38.80;12.55;;;;;;;;;;5042118;28;20162;-68
2020/12/23 02:11:23;;;;;;;31.70;11.07;;;;;;;;;;5041803;28;20108;-68
2020/12/23 02:13:48;;;;;;;34.40;12.33;;;;;;;;;;5042005;28;20048;-67
2020/12/23 02:16:14;;;;;;;36.97;14.68;;;;;;;;;;5042327;28;20338;-68
2020/12/23 02:18:40;;;;;;;29.13;13.35;;;;;;;;;;5040186;28;20045;-68
2020/12/23 02:21:05;;;;;;;33.35;14.68;;;;;;;;;;5040619;28;20029;-68
2020/12/23 02:23:30;;;;;;;30.38;13.52;;;;;;;;;;5042290;28;20033;-68
2020/12/23 02:25:56;;;;;;;30.67;14.02;;;;;;;;;;5042445;28;20108;-67
2020/12/23 02:28:21;;;;;;;28.95;14.18;;;;;;;;;;5040988;28;20148;-67
2020/12/23 02:30:50;;;;;;;32.88;14.20;;;;;;;;;;5042529;28;20067;-68
2020/12/23 02:33:15;;;;;;;32.47;15.40;;;;;;;;;;5042154;28;20493;-68
2020/12/23 02:35:40;;;;;;;30.52;14.10;;;;;;;;;;5042291;28;20044;-68
2020/12/23 02:38:06;;;;;;;23.85;14.05;;;;;;;;;;5039618;28;20025;-68
2020/12/23 02:40:31;;;;;;;27.83;13.93;;;;;;;;;;5044553;28;20052;-68
2020/12/23 02:42:56;;;;;;;26.13;12.43;;;;;;;;;;5045202;28;20343;-68
2020/12/23 02:45:21;;;;;;;23.40;10.57;;;;;;;;;;5046496;28;20108;-68
2020/12/23 02:47:46;;;;;;;27.75;12.25;;;;;;;;;;5046304;28;20341;-67
2020/12/23 02:50:12;;;;;;;24.27;11.53;;;;;;;;;;5045080;28;20385;-68
2020/12/23 02:52:37;;;;;;;20.27;10.77;;;;;;;;;;5046424;28;20282;-68
2020/12/23 02:55:02;;;;;;;20.13;11.27;;;;;;;;;;5045377;28;20025;-69
2020/12/23 02:57:27;;;;;;;18.38;9.52;;;;;;;;;;5045639;28;20263;-68
2020/12/23 02:59:52;;;;;;;20.43;11.03;;;;;;;;;;5043007;28;20056;-67
2020/12/23 03:02:17;;;;;;;21.13;10.43;;;;;;;;;;5045097;28;20724;-68
2020/12/23 03:04:43;;;;;;;20.73;11.20;;;;;;;;;;5044968;28;20267;-68
2020/12/23 03:07:08;;;;;;;19.95;10.25;;;;;;;;;;5045763;28;21040;-68
2020/12/23 03:09:33;;;;;;;22.90;9.60;;;;;;;;;;5044481;28;20064;-68
2020/12/23 03:11:58;;;;;;;19.02;9.00;;;;;;;;;;5044363;28;20333;-68
2020/12/23 03:14:23;;;;;;;24.00;10.20;;;;;;;;;;5045737;28;20033;-67
2020/12/23 03:16:48;;;;;;;17.02;9.07;;;;;;;;;;5045666;28;20818;-68
2020/12/23 03:19:14;;;;;;;17.40;9.17;;;;;;;;;;5046046;28;20029;-68
2020/12/23 03:21:39;;;;;;;13.87;8.77;;;;;;;;;;5045532;28;20313;-68
2020/12/23 03:24:04;;;;;;;16.13;8.70;;;;;;;;;;5045739;28;20269;-68
2020/12/23 03:26:29;;;;;;;16.50;8.55;;;;;;;;;;5045372;28;20264;-68
2020/12/23 03:28:54;;;;;;;15.13;8.30;;;;;;;;;;5043188;28;20052;-67
2020/12/23 03:31:19;;;;;;;14.23;7.65;;;;;;;;;;5044323;28;20489;-68
2020/12/23 03:33:45;;;;;;;13.40;7.13;;;;;;;;;;5045326;28;20025;-68
2020/12/23 03:36:10;;;;;;;16.43;8.23;;;;;;;;;;5044713;28;20284;-68
2020/12/23 03:38:35;;;;;;;12.32;5.82;;;;;;;;;;5044773;28;20278;-67
2020/12/23 03:41:01;;;;;;;10.93;7.18;;;;;;;;;;5044840;28;20021;-68
2020/12/23 03:43:26;;;;;;;12.13;6.45;;;;;;;;;;5045790;28;20017;-68
2020/12/23 03:45:51;;;;;;;13.87;7.10;;;;;;;;;;5045518;28;20100;-68
2020/12/23 03:48:17;;;;;;;12.73;5.32;;;;;;;;;;5045874;28;20267;-68
2020/12/23 03:50:42;;;;;;;11.43;6.03;;;;;;;;;;5041230;28;20064;-68
2020/12/23 03:53:08;;;;;;;11.32;5.78;;;;;;;;;;5044899;28;20043;-68
2020/12/23 03:55:33;;;;;;;8.27;4.93;;;;;;;;;;5045227;28;20374;-68
2020/12/23 03:57:58;;;;;;;9.47;5.27;;;;;;;;;;5044838;28;20087;-68
2020/12/23 04:00:23;;;;;;;12.13;5.47;;;;;;;;;;5043701;28;20291;-68
2020/12/23 04:02:49;;;;;;;9.03;5.10;;;;;;;;;;5044626;28;20390;-68
2020/12/23 04:05:14;;;;;;;10.90;4.80;;;;;;;;;;5045103;28;20271;-69
2020/12/23 04:07:39;;;;;;;7.53;4.15;;;;;;;;;;5045040;28;20033;-69
2020/12/23 04:10:05;;;;;;;12.77;4.53;;;;;;;;;;5042970;28;20667;-69
2020/12/23 04:12:30;;;;;;;8.15;3.67;;;;;;;;;;5042503;28;20071;-69
2020/12/23 04:14:56;;;;;;;6.27;3.73;;;;;;;;;;5044045;28;20017;-68
2020/12/23 04:17:21;;;;;;;8.45;4.68;;;;;;;;;;5044861;28;20291;-68
2020/12/23 04:19:46;;;;;;;8.60;3.22;;;;;;;;;;5045010;28;20520;-70
2020/12/23 04:22:11;;;;;;;10.07;4.30;;;;;;;;;;5044573;28;20058;-69
2020/12/23 04:24:37;;;;;;;6.25;3.45;;;;;;;;;;5044874;28;20275;-69
2020/12/23 04:27:02;;;;;;;7.72;3.15;;;;;;;;;;5043887;28;20047;-69
2020/12/23 04:29:27;;;;;;;4.55;2.33;;;;;;;;;;5042623;28;20029;-70
2020/12/23 04:31:52;;;;;;;12.60;3.92;;;;;;;;;;5043718;28;20714;-70
2020/12/23 04:34:17;;;;;;;6.47;3.57;;;;;;;;;;5043900;28;20056;-68
2020/12/23 04:36:42;;;;;;;7.63;4.53;;;;;;;;;;5043154;28;20283;-68
2020/12/23 04:39:08;;;;;;;5.13;3.10;;;;;;;;;;5043207;28;20763;-68
2020/12/23 04:41:34;;;;;;;4.78;2.33;;;;;;;;;;5042950;28;20278;-69
2020/12/23 04:43:59;;;;;;;5.55;3.17;;;;;;;;;;5042825;28;20028;-69
2020/12/23 04:46:28;;;;;;;6.68;3.53;;;;;;;;;;5045036;28;20021;-69
2020/12/23 04:48:56;;;;;;;6.53;3.45;;;;;;;;;;5043817;28;20016;-69
2020/12/23 04:51:27;;;;;;;13.57;4.28;;;;;;;;;;5043610;28;20021;-69
2020/12/23 04:53:52;;;;;;;6.57;2.88;;;;;;;;;;5044388;28;20497;-69
2020/12/23 04:56:17;;;;;;;4.33;1.87;;;;;;;;;;5044055;28;20036;-70
2020/12/23 04:58:42;;;;;;;8.68;4.68;;;;;;;;;;5044114;28;20289;-70
2020/12/23 05:01:08;;;;;;;13.88;4.60;;;;;;;;;;5043341;28;20045;-69
2020/12/23 05:03:33;;;;;;;5.85;3.38;;;;;;;;;;5043368;28;20032;-69
2020/12/23 05:05:58;;;;;;;8.75;3.92;;;;;;;;;;5042792;28;20028;-70
2020/12/23 05:08:24;;;;;;;8.80;3.78;;;;;;;;;;5043734;28;20041;-69
2020/12/23 05:10:49;;;;;;;2.42;1.42;;;;;;;;;;5042028;28;20021;-70
2020/12/23 05:13:16;;;;;;;4.30;2.33;;;;;;;;;;5044314;28;20036;-70
2020/12/23 05:15:41;;;;;;;7.72;3.40;;;;;;;;;;5044464;28;20702;-69
2020/12/23 05:18:07;;;;;;;6.40;3.67;;;;;;;;;;5041455;28;20036;-70
2020/12/23 05:20:32;;;;;;;2.95;1.25;;;;;;;;;;5042536;28;20025;-69
2020/12/23 05:22:58;;;;;;;8.70;3.22;;;;;;;;;;5043278;28;20016;-69
2020/12/23 05:25:23;;;;;;;11.90;5.00;;;;;;;;;;5043847;28;20035;-70
2020/12/23 05:27:49;;;;;;;12.35;4.82;;;;;;;;;;5043218;28;20079;-70
2020/12/23 05:30:14;;;;;;;6.47;4.22;;;;;;;;;;5043652;28;20115;-69
2020/12/23 05:32:40;;;;;;;10.25;1.48;;;;;;;;;;5042654;28;20527;-69
2020/12/23 05:35:06;;;;;;;11.45;3.95;;;;;;;;;;5042985;28;20564;-70
2020/12/23 05:37:31;;;;;;;10.63;4.50;;;;;;;;;;5042731;28;20164;-69
2020/12/23 05:39:56;;;;;;;9.82;4.03;;;;;;;;;;5056376;28;20040;-69
2020/12/23 05:42:22;;;;;;;10.20;4.10;;;;;;;;;;5041701;28;20021;-70
2020/12/23 05:44:51;;;;;;;16.58;5.75;;;;;;;;;;5042797;28;20291;-70
2020/12/23 05:47:23;;;;;;;10.18;4.45;;;;;;;;;;5043645;28;20036;-70
2020/12/23 05:49:49;;;;;;;10.68;5.18;;;;;;;;;;5042651;28;20023;-70
2020/12/23 05:52:15;;;;;;;6.22;3.33;;;;;;;;;;5057833;28;20033;-70
2020/12/23 05:54:40;;;;;;;9.45;4.40;;;;;;;;;;5042704;28;20029;-70
2020/12/23 05:57:05;;;;;;;8.02;3.20;;;;;;;;;;5041699;28;20683;-69
2020/12/23 05:59:31;;;;;;;5.38;3.10;;;;;;;;;;5055147;28;20013;-70
2020/12/23 06:01:56;;;;;;;10.93;4.18;;;;;;;;;;5042235;28;20009;-70
2020/12/23 06:04:22;;;;;;;10.25;4.80;;;;;;;;;;5042357;28;20021;-70
2020/12/23 06:06:47;;;;;;;10.00;4.07;;;;;;;;;;5041951;28;20040;-70
2020/12/23 06:09:15;;;;;;;5.67;3.10;;;;;;;;;;5042429;28;20109;-69
2020/12/23 06:11:40;;;;;;;5.18;2.78;;;;;;;;;;5042667;28;20278;-69
2020/12/23 06:14:10;;;;;;;5.70;2.95;;;;;;;;;;5040573;28;20111;-69
2020/12/23 06:16:47;;;;;;;7.82;3.85;;;;;;;;;;5043229;28;20035;-70
2020/12/23 06:19:29;;;;;;;11.45;3.53;;;;;;;;;;5042033;28;20457;-69
2020/12/23 06:21:56;;;;;;;6.18;3.28;;;;;;;;;;5042651;28;20021;-69
2020/12/23 06:24:21;;;;;;;5.65;1.80;;;;;;;;;;5041398;28;20013;-70
2020/12/23 06:26:47;;;;;;;5.15;2.58;;;;;;;;;;5042821;28;20032;-69
2020/12/23 06:29:17;;;;;;;7.40;3.00;;;;;;;;;;5041932;28;20064;-69
2020/12/23 06:31:49;;;;;;;5.93;2.13;;;;;;;;;;5042156;28;20040;-69
2020/12/23 06:34:21;;;;;;;7.57;2.42;;;;;;;;;;5042128;28;20021;-70
2020/12/23 06:36:48;;;;;;;8.98;2.10;;;;;;;;;;5042974;28;20025;-70
2020/12/23 06:39:19;;;;;;;5.63;1.80;;;;;;;;;;5042227;28;20048;-70
2020/12/23 06:41:59;;;;;;;4.75;1.75;;;;;;;;;;5042609;28;20147;-70
2020/12/23 06:44:24;;;;;;;3.10;1.50;;;;;;;;;;5039823;28;20082;-70
2020/12/23 06:46:58;;;;;;;2.33;1.43;;;;;;;;;;5041090;28;20586;-71
2020/12/23 06:49:33;;;;;;;6.78;1.30;;;;;;;;;;5040918;28;20904;-70
2020/12/23 06:51:58;;;;;;;4.38;1.98;;;;;;;;;;5040694;28;20023;-70
2020/12/23 06:54:42;;;;;;;2.20;1.10;;;;;;;;;;5042145;28;20384;-71
2020/12/23 06:57:07;;;;;;;11.48;3.45;;;;;;;;;;5041740;28;20337;-69
2020/12/23 06:59:45;;;;;;;5.97;1.30;;;;;;;;;;5041844;28;20021;-69
2020/12/23 07:02:10;;;;;;;4.18;1.40;;;;;;;;;;5041760;28;20275;-69
2020/12/23 07:04:35;;;;;;;2.75;1.13;;;;;;;;;;5041626;28;20029;-69
2020/12/23 07:07:05;;;;;;;18.50;1.48;;;;;;;;;;5042139;28;20021;-70
2020/12/23 07:09:31;;;;;;;4.07;1.20;;;;;;;;;;5039647;28;20485;-70
2020/12/23 07:11:57;;;;;;;1.50;1.20;;;;;;;;;;5041879;28;20033;-70
2020/12/23 07:14:22;;;;;;;2.45;1.00;;;;;;;;;;5041592;28;20098;-70
2020/12/23 07:16:47;;;;;;;4.77;1.00;;;;;;;;;;5042580;28;20162;-70
2020/12/23 07:19:13;;;;;;;5.30;1.13;;;;;;;;;;5041922;28;21113;-67
2020/12/23 07:21:38;;;;;;;2.67;1.05;;;;;;;;;;5042031;28;20414;-70
2020/12/23 07:24:05;;;;;;;1.80;0.88;;;;;;;;;;5041412;28;20123;-70
2020/12/23 07:26:36;;;;;;;1.45;0.68;;;;;;;;;;5044356;28;20481;-70
2020/12/23 07:29:07;;;;;;;10.55;1.00;;;;;;;;;;5044147;28;20082;-67
2020/12/23 07:31:32;;;;;;;1.85;0.85;;;;;;;;;;5045798;28;20036;-70
2020/12/23 07:33:57;;;;;;;2.43;0.73;;;;;;;;;;5042849;28;20021;-69
2020/12/23 07:36:22;;;;;;;1.80;0.87;;;;;;;;;;5045557;28;20625;-69
2020/12/23 07:38:51;;;;;;;1.08;0.68;;;;;;;;;;5044692;28;20275;-70
2020/12/23 07:41:16;;;;;;;0.90;0.40;;;;;;;;;;5045571;28;20032;-71
2020/12/23 07:43:42;;;;;;;6.43;0.70;;;;;;;;;;5045338;28;20707;-70
2020/12/23 07:46:07;;;;;;;1.73;0.70;;;;;;;;;;5045358;28;20115;-70
2020/12/23 07:48:33;;;;;;;6.30;0.95;;;;;;;;;;5045564;28;20052;-70
2020/12/23 07:50:59;;;;;;;0.82;0.45;;;;;;;;;;5043820;28;20025;-71
2020/12/23 07:53:25;;;;;;;1.85;0.80;;;;;;;;;;5044902;28;20032;-70
2020/12/23 07:55:56;;;;;;;2.33;0.90;;;;;;;;;;5045196;28;20090;-70
2020/12/23 07:58:21;;;;;;;1.60;0.40;;;;;;;;;;5045120;28;20381;-70
2020/12/23 08:00:46;;;;;;;2.47;0.40;;;;;;;;;;5044059;28;20035;-69
2020/12/23 08:03:12;;;;;;;1.33;0.70;;;;;;;;;;5043995;28;20268;-69
2020/12/23 08:05:38;;;;;;;1.75;0.57;;;;;;;;;;5044782;28;20271;-70
2020/12/23 08:08:03;;;;;;;3.40;0.70;;;;;;;;;;5043808;28;20021;-70
2020/12/23 08:10:28;;;;;;;3.53;0.65;;;;;;;;;;5043908;28;20051;-70
2020/12/23 08:13:01;;;;;;;5.72;0.60;;;;;;;;;;5042338;28;20027;-70
2020/12/23 08:15:26;;;;;;;2.53;0.80;;;;;;;;;;5043050;28;20032;-70
2020/12/23 08:17:59;;;;;;;3.75;0.82;;;;;;;;;;5045521;28;20013;-70
2020/12/23 08:20:24;;;;;;;2.38;0.52;;;;;;;;;;5042672;28;20021;-70
2020/12/23 08:22:49;;;;;;;2.03;0.52;;;;;;;;;;5042837;28;20030;-70
2020/12/23 08:25:15;;;;;;;2.23;0.70;;;;;;;;;;5041639;28;20029;-70
2020/12/23 08:27:42;;;;;;;2.40;0.60;;;;;;;;;;5044020;28;20263;-69
2020/12/23 08:30:08;;;;;;;1.77;0.70;;;;;;;;;;5043432;28;20460;-69
2020/12/23 08:32:36;;;;;;;2.40;0.45;;;;;;;;;;5044287;28;20020;-70
2020/12/23 08:35:02;;;;;;;1.08;0.40;;;;;;;;;;5042238;28;20028;-70
2020/12/23 08:37:28;;;;;;;3.85;0.60;;;;;;;;;;5043836;28;20029;-69
2020/12/23 08:39:54;;;;;;;1.80;0.95;;;;;;;;;;5043916;28;20083;-70
2020/12/23 08:42:21;;;;;;;1.65;1.00;;;;;;;;;;5043647;28;20025;-70
2020/12/23 08:44:48;;;;;;;4.32;1.20;;;;;;;;;;5043348;28;20045;-70
2020/12/23 08:47:19;;;;;;;4.93;1.33;;;;;;;;;;5041825;28;20028;-70
2020/12/23 08:49:44;;;;;;;6.63;1.38;;;;;;;;;;5042696;28;20032;-70
2020/12/23 08:52:19;;;;;;;2.58;1.00;;;;;;;;;;5043325;28;20037;-70
2020/12/23 08:54:44;;;;;;;4.35;1.08;;;;;;;;;;5044348;28;20040;-70
2020/12/23 08:57:09;;;;;;;4.55;1.35;;;;;;;;;;5041774;28;20029;-72
2020/12/23 08:59:39;;;;;;;2.67;1.17;;;;;;;;;;5042791;28;20036;-69
2020/12/23 09:02:11;;;;;;;3.87;1.77;;;;;;;;;;5043096;28;20051;-70
2020/12/23 09:04:36;;;;;;;6.55;1.17;;;;;;;;;;5043360;28;20306;-70
2020/12/23 09:07:01;;;;;;;2.47;0.93;;;;;;;;;;5043208;28;20017;-67
2020/12/23 09:09:26;;;;;;;9.17;1.20;;;;;;;;;;5042465;28;20074;-68
2020/12/23 09:11:52;;;;;;;1.47;0.50;;;;;;;;;;5043379;28;21128;-70
2020/12/23 09:14:22;;;;;;;3.53;0.80;;;;;;;;;;5041822;28;20286;-71
2020/12/23 09:16:53;;;;;;;1.90;0.60;;;;;;;;;;5043705;28;20029;-70
2020/12/23 09:19:18;;;;;;;1.92;0.65;;;;;;;;;;5044549;28;20043;-70
2020/12/23 09:21:53;;;;;;;0.40;0.30;;;;;;;;;;5041548;28;20029;-69
2020/12/23 09:24:20;;;;;;;0.40;0.40;;;;;;;;;;5043196;28;20033;-70
2020/12/23 09:26:45;;;;;;;8.32;1.33;;;;;;;;;;5043200;28;20037;-70
2020/12/23 09:29:10;;;;;;;1.67;0.70;;;;;;;;;;5041977;28;20021;-70
2020/12/23 09:31:36;;;;;;;1.93;1.27;;;;;;;;;;5041926;28;20289;-69
2020/12/23 09:34:01;;;;;;;2.03;0.93;;;;;;;;;;5042737;28;20369;-70
2020/12/23 09:36:27;;;;;;;1.00;0.73;;;;;;;;;;5043215;28;20365;-70
2020/12/23 09:38:52;;;;;;;0.80;0.47;;;;;;;;;;5043293;28;20315;-70
2020/12/23 09:41:18;;;;;;;6.13;1.10;;;;;;;;;;5043511;28;20267;-71
2020/12/23 09:43:43;;;;;;;3.05;1.00;;;;;;;;;;5043134;28;20268;-70
2020/12/23 09:46:08;;;;;;;6.28;0.93;;;;;;;;;;5042653;28;20028;-70
2020/12/23 09:48:33;;;;;;;0.70;0.40;;;;;;;;;;5042424;28;20268;-70
2020/12/23 09:50:59;;;;;;;1.60;0.73;;;;;;;;;;5042052;28;20064;-70
2020/12/23 09:59:02;;;;;;;1.17;0.80;;;;;;;;;;5012007;28;20418;-68
2020/12/23 10:01:27;;;;;;;2.30;0.90;;;;;;;;;;5021212;28;20108;-69
2020/12/23 10:03:52;;;;;;;3.60;1.03;;;;;;;;;;5011544;28;20265;-69
2020/12/23 10:06:18;;;;;;;2.28;1.48;;;;;;;;;;5009155;28;20367;-69
2020/12/23 10:08:43;;;;;;;5.25;1.05;;;;;;;;;;5061988;22;20320;-68
2020/12/23 10:11:08;;;;;;;1.43;0.53;;;;;;;;;;5052614;28;20017;-68
2020/12/23 10:13:34;;;;;;;0.80;0.50;;;;;;;;;;5047042;28;20252;-68
2020/12/23 10:15:59;;;;;;;3.97;0.57;;;;;;;;;;5044194;28;20120;-68
2020/12/23 10:18:24;;;;;;;1.52;0.60;;;;;;;;;;5042578;28;20031;-68
2020/12/23 10:20:49;;;;;;;6.97;0.60;;;;;;;;;;5042144;28;20021;-68
2020/12/23 10:23:15;;;;;;;0.50;0.30;;;;;;;;;;5042278;28;20295;-67
2020/12/23 10:25:41;;;;;;;12.05;0.70;;;;;;;;;;5041753;28;20287;-68
2020/12/23 10:28:06;;;;;;;4.88;1.00;;;;;;;;;;5041776;28;20063;-68
2020/12/23 10:30:31;;;;;;;0.20;0.20;;;;;;;;;;5041499;28;20325;-68
2020/12/23 10:32:56;;;;;;;0.95;0.50;;;;;;;;;;5041667;28;20374;-69
2020/12/23 10:35:21;;;;;;;0.93;0.50;;;;;;;;;;5040456;28;20276;-68
2020/12/23 10:37:46;;;;;;;2.87;0.73;;;;;;;;;;5040863;28;20779;-68
2020/12/23 10:40:12;;;;;;;0.80;0.60;;;;;;;;;;5040394;28;20275;-68
2020/12/23 10:42:37;;;;;;;2.20;0.70;;;;;;;;;;5041112;28;20562;-67
2020/12/23 10:45:03;;;;;;;1.43;0.60;;;;;;;;;;5041987;28;20021;-67
2020/12/23 10:47:28;;;;;;;1.25;0.60;;;;;;;;;;5040727;28;20280;-68
2020/12/23 10:49:53;;;;;;;6.15;0.82;;;;;;;;;;5022655;28;20032;-68
2020/12/23 10:52:19;;;;;;;2.05;0.80;;;;;;;;;;5041123;28;20109;-68
2020/12/23 10:54:45;;;;;;;1.33;0.70;;;;;;;;;;5041907;28;20404;-68
2020/12/23 10:57:13;;;;;;;5.00;0.77;;;;;;;;;;5022158;28;20029;-68
2020/12/23 10:59:38;;;;;;;1.15;0.60;;;;;;;;;;5042014;28;20350;-68
2020/12/23 11:02:03;;;;;;;1.92;0.55;;;;;;;;;;5028343;28;21347;-68
2020/12/23 11:04:29;;;;;;;1.30;0.80;;;;;;;;;;5030431;28;20441;-68
2020/12/23 11:06:54;;;;;;;2.22;0.70;;;;;;;;;;5044942;28;20275;-69
2020/12/23 11:09:19;;;;;;;4.37;0.80;;;;;;;;;;5047020;28;20451;-68
2020/12/23 11:11:48;;;;;;;4.88;0.88;;;;;;;;;;5046789;28;20267;-68
2020/12/23 11:14:13;;;;;;;2.05;0.63;;;;;;;;;;5041888;28;20036;-68
2020/12/23 11:16:38;;;;;;;4.50;1.00;;;;;;;;;;5041445;28;20021;-68
2020/12/23 11:19:04;;;;;;;3.80;1.00;;;;;;;;;;5043402;28;20272;-68
2020/12/23 11:21:32;;;;;;;1.52;0.70;;;;;;;;;;5043235;28;20267;-67
2020/12/23 11:23:57;;;;;;;3.95;1.48;;;;;;;;;;5026520;28;20659;-69
2020/12/23 11:26:22;;;;;;;5.23;1.03;;;;;;;;;;5024245;28;20020;-68
2020/12/23 11:28:48;;;;;;;1.35;0.90;;;;;;;;;;5045514;28;20255;-67
2020/12/23 11:31:13;;;;;;;2.45;1.30;;;;;;;;;;5027174;28;21218;-68
2020/12/23 11:33:39;;;;;;;2.30;1.30;;;;;;;;;;5043550;28;20029;-68
2020/12/23 11:36:04;;;;;;;1.50;1.15;;;;;;;;;;5040104;28;20021;-68
2020/12/23 11:38:29;;;;;;;2.30;1.30;;;;;;;;;;5044939;28;20021;-67
2020/12/23 11:40:54;;;;;;;4.00;1.30;;;;;;;;;;5030263;28;20013;-68
2020/12/23 11:43:20;;;;;;;4.18;1.60;;;;;;;;;;5042881;28;20017;-68
2020/12/23 11:45:45;;;;;;;4.97;2.28;;;;;;;;;;5022219;28;20064;-68
2020/12/23 11:48:10;;;;;;;3.47;1.30;;;;;;;;;;5024202;28;20033;-68
2020/12/23 11:50:35;;;;;;;5.80;1.67;;;;;;;;;;5025210;28;20044;-68
2020/12/23 11:53:01;;;;;;;7.05;1.52;;;;;;;;;;5028586;28;20032;-68
2020/12/23 11:55:26;;;;;;;2.45;1.42;;;;;;;;;;5025025;28;20029;-68
2020/12/23 11:57:51;;;;;;;9.15;2.00;;;;;;;;;;5026866;28;20388;-68
2020/12/23 12:00:17;;;;;;;4.18;1.35;;;;;;;;;;5043969;28;20111;-68
2020/12/23 12:03:07;;;;;;;10.63;3.00;;;;;;;;;;5039888;28;20125;-68
2020/12/23 12:14:53;;;;;;;6.13;3.08;;;;;;;;;;4965096;28;20621;-68
2020/12/23 12:17:47;;;;;;;7.57;2.15;;;;;;;;;;5004551;28;20060;-70
2020/12/23 12:20:13;;;;;;;8.95;3.10;;;;;;;;;;5026747;28;20637;-70
2020/12/23 12:22:39;;;;;;;6.25;2.67;;;;;;;;;;5024273;28;20119;-70
2020/12/23 12:25:04;;;;;;;5.93;2.30;;;;;;;;;;5024298;28;20112;-69
2020/12/23 12:27:29;;;;;;;6.28;3.75;;;;;;;;;;5022822;28;20508;-70
2020/12/23 12:29:55;;;;;;;11.07;3.30;;;;;;;;;;5043657;28;20617;-68
2020/12/23 12:32:20;;;;;;;8.20;3.28;;;;;;;;;;5034442;28;20278;-69
2020/12/23 12:34:45;;;;;;;10.57;3.40;;;;;;;;;;5043463;28;20032;-69
2020/12/23 12:37:10;;;;;;;8.15;3.45;;;;;;;;;;5039971;28;20306;-69
2020/12/23 12:39:36;;;;;;;7.25;3.58;;;;;;;;;;5044526;28;20849;-69
2020/12/23 12:42:01;;;;;;;3.88;2.03;;;;;;;;;;5028744;28;20508;-69
2020/12/23 12:44:27;;;;;;;8.35;3.80;;;;;;;;;;5044053;28;20049;-70
2020/12/23 12:46:52;;;;;;;10.60;6.63;;;;;;;;;;5020541;28;20024;-69
2020/12/23 12:49:18;;;;;;;14.80;8.93;;;;;;;;;;5024932;28;21610;-69
2020/12/23 12:51:44;;;;;;;9.55;4.82;;;;;;;;;;5044090;28;20310;-69
2020/12/23 12:54:09;;;;;;;10.43;5.50;;;;;;;;;;5025504;28;20037;-70
2020/12/23 12:56:35;;;;;;;8.20;3.17;;;;;;;;;;5032467;28;20067;-69
2020/12/23 12:59:01;;;;;;;2.45;1.30;;;;;;;;;;5019571;28;20035;-69
2020/12/23 13:01:36;;;;;;;6.60;1.27;;;;;;;;;;5041696;28;20029;-69
2020/12/23 13:04:04;;;;;;;8.13;2.78;;;;;;;;;;5022293;28;20108;-69
2020/12/23 13:06:29;;;;;;;9.95;2.88;;;;;;;;;;5039236;28;20051;-69
2020/12/23 13:08:54;;;;;;;2.77;1.87;;;;;;;;;;5042806;28;20025;-69
2020/12/23 13:11:21;;;;;;;4.60;2.63;;;;;;;;;;5049620;28;20307;-69
2020/12/23 13:13:46;;;;;;;6.95;3.30;;;;;;;;;;5046631;28;20013;-69
2020/12/23 13:16:12;;;;;;;2.72;1.70;;;;;;;;;;5025742;28;20071;-69
2020/12/23 13:18:37;;;;;;;7.70;3.05;;;;;;;;;;5043575;28;20021;-69
2020/12/23 13:21:03;;;;;;;11.50;4.20;;;;;;;;;;5047919;28;20024;-69
2020/12/23 13:23:55;;;;;;;6.05;2.42;;;;;;;;;;5022576;28;20018;-69
2020/12/23 13:26:21;;;;;;;10.18;3.25;;;;;;;;;;5028262;28;20036;-69
2020/12/23 13:28:47;;;;;;;9.65;3.00;;;;;;;;;;5012524;28;20025;-69
2020/12/23 13:31:14;;;;;;;9.75;3.00;;;;;;;;;;5043281;28;20041;-69
2020/12/23 13:33:39;;;;;;;8.73;3.22;;;;;;;;;;5042157;28;20039;-69
2020/12/23 13:36:04;;;;;;;9.73;4.30;;;;;;;;;;5046747;28;20024;-69
2020/12/23 13:38:30;;;;;;;7.55;3.90;;;;;;;;;;5018807;28;20017;-69
2020/12/23 13:40:56;;;;;;;10.07;4.38;;;;;;;;;;5041248;28;20027;-70
2020/12/23 13:43:23;;;;;;;10.23;4.25;;;;;;;;;;5022645;28;20028;-69
2020/12/23 13:45:56;;;;;;;11.57;4.03;;;;;;;;;;5023118;28;20033;-69
2020/12/23 13:48:21;;;;;;;8.02;4.45;;;;;;;;;;5023371;28;20032;-69
2020/12/23 13:50:47;;;;;;;7.25;4.35;;;;;;;;;;5040869;28;20059;-69
2020/12/23 13:53:12;;;;;;;9.23;3.90;;;;;;;;;;5041748;28;20040;-68
2020/12/23 13:55:38;;;;;;;6.57;3.78;;;;;;;;;;5042601;28;20882;-68
2020/12/23 13:58:04;;;;;;;8.75;3.28;;;;;;;;;;5042032;28;20106;-69
2020/12/23 14:00:29;;;;;;;7.95;3.40;;;;;;;;;;5039005;28;20055;-68
2020/12/23 14:03:21;;;;;;;7.68;3.33;;;;;;;;;;5040815;28;20048;-68
2020/12/23 14:05:46;;;;;;;4.70;2.72;;;;;;;;;;5041162;28;20045;-68
2020/12/23 14:08:11;;;;;;;4.50;2.28;;;;;;;;;;5039248;28;20028;-70
2020/12/23 14:10:36;;;;;;;8.07;2.47;;;;;;;;;;5041632;28;20032;-69
2020/12/23 14:13:01;;;;;;;6.00;2.10;;;;;;;;;;5042841;28;21546;-69
2020/12/23 14:15:27;;;;;;;6.53;3.72;;;;;;;;;;5042552;28;20271;-69
2020/12/23 14:17:52;;;;;;;6.25;1.90;;;;;;;;;;5033740;28;20548;-69
2020/12/23 14:20:18;;;;;;;7.50;1.80;;;;;;;;;;5039934;28;20025;-69
2020/12/23 14:22:52;;;;;;;9.60;3.35;;;;;;;;;;5042370;28;20029;-69
2020/12/23 14:25:18;;;;;;;5.55;2.90;;;;;;;;;;5042081;28;20043;-69
2020/12/23 14:27:50;;;;;;;1.42;1.20;;;;;;;;;;5022524;28;20062;-69
2020/12/23 14:30:24;;;;;;;7.88;1.80;;;;;;;;;;5040890;28;20114;-68
2020/12/23 14:33:19;;;;;;;7.97;2.60;;;;;;;;;;5023867;28;20029;-69
2020/12/23 14:42:44;;;;;;;7.80;1.98;;;;;;;;;;5023332;28;20148;-68
2020/12/23 14:45:28;;;;;;;8.68;2.60;;;;;;;;;;4976819;28;20022;-68
2020/12/23 14:54:15;;;;;;;3.65;1.80;;;;;;;;;;4933458;28;20043;-68
2020/12/23 14:57:07;;;;;;;2.85;1.50;;;;;;;;;;5032767;28;20313;-69
2020/12/23 15:00:16;;;;;;;6.30;2.17;;;;;;;;;;5026245;28;20022;-68